sensor_id;sensor_type;location;lat;lon;timestamp;pressure;altitude;pressure_sealevel;temperature;humidity
39267;BME280;24967;51.154;13.812;2023-07-08T01:13:41;99922.91;;;17.81;59.46
39267;BME280;24967;51.154;13.812;2023-07-08T01:16:10;99927.47;;;17.81;59.59
39267;BME280;24967;51.154;13.812;2023-07-08T01:18:37;99922.75;;;17.83;59.58
39267;BME280;24967;51.154;13.812;2023-07-08T01:21:06;99924.97;;;17.79;59.71
39267;BME280;24967;51.154;13.812;2023-07-08T01:23:53;99922.91;;;17.81;59.36
39267;BME280;24967;51.154;13.812;2023-07-08T01:26:22;99917.91;;;17.78;59.46
39267;BME280;24967;51.154;13.812;2023-07-08T01:28:50;99913.56;;;17.77;59.68
39267;BME280;24967;51.154;13.812;2023-07-08T01:31:18;99916.25;;;17.77;59.49
39267;BME280;24967;51.154;13.812;2023-07-08T01:33:45;99915.78;;;17.74;59.44
39267;BME280;24967;51.154;13.812;2023-07-08T01:36:11;99917.81;;;17.72;59.50
39267;BME280;24967;51.154;13.812;2023-07-08T01:38:39;99910.13;;;17.69;59.53
39267;BME280;24967;51.154;13.812;2023-07-08T01:41:10;99919.00;;;17.69;59.67
39267;BME280;24967;51.154;13.812;2023-07-08T01:43:38;99902.25;;;17.67;59.68
39267;BME280;24967;51.154;13.812;2023-07-08T01:46:11;99914.38;;;17.63;59.93
39267;BME280;24967;51.154;13.812;2023-07-08T01:48:42;99903.72;;;17.55;60.16
39267;BME280;24967;51.154;13.812;2023-07-08T01:51:11;99900.41;;;17.53;60.13
39267;BME280;24967;51.154;13.812;2023-07-08T01:53:42;99903.19;;;17.45;60.40
39267;BME280;24967;51.154;13.812;2023-07-08T01:56:11;99897.16;;;17.43;60.58
39267;BME280;24967;51.154;13.812;2023-07-08T01:58:38;99903.56;;;17.42;60.59
39267;BME280;24967;51.154;13.812;2023-07-08T02:01:05;99903.56;;;17.42;60.49
39267;BME280;24967;51.154;13.812;2023-07-08T02:03:33;99900.31;;;17.46;60.38
39267;BME280;24967;51.154;13.812;2023-07-08T02:05:59;99901.06;;;17.40;60.31
39267;BME280;24967;51.154;13.812;2023-07-08T02:08:26;99899.59;;;17.37;60.28
39267;BME280;24967;51.154;13.812;2023-07-08T02:10:54;99894.00;;;17.39;60.35
39267;BME280;24967;51.154;13.812;2023-07-08T02:13:23;99893.25;;;17.45;60.49
39267;BME280;24967;51.154;13.812;2023-07-08T02:15:50;99895.22;;;17.36;60.34
39267;BME280;24967;51.154;13.812;2023-07-08T02:18:17;99888.00;;;17.37;60.35
39267;BME280;24967;51.154;13.812;2023-07-08T02:20:44;99898.75;;;17.37;60.33
39267;BME280;24967;51.154;13.812;2023-07-08T02:23:10;99897.25;;;17.34;60.32
39267;BME280;24967;51.154;13.812;2023-07-08T02:25:37;99900.78;;;17.35;60.25
39267;BME280;24967;51.154;13.812;2023-07-08T02:28:03;99891.44;;;17.31;60.57
39267;BME280;24967;51.154;13.812;2023-07-08T02:30:31;99888.91;;;17.29;60.72
39267;BME280;24967;51.154;13.812;2023-07-08T02:32:57;99889.19;;;17.20;61.65
39267;BME280;24967;51.154;13.812;2023-07-08T02:35:25;99888.63;;;17.24;61.30
39267;BME280;24967;51.154;13.812;2023-07-08T02:37:52;99894.66;;;17.26;61.33
39267;BME280;24967;51.154;13.812;2023-07-08T02:40:19;99882.13;;;17.33;61.10
39267;BME280;24967;51.154;13.812;2023-07-08T02:42:46;99886.16;;;17.37;61.00
39267;BME280;24967;51.154;13.812;2023-07-08T02:45:13;99887.16;;;17.36;61.32
39267;BME280;24967;51.154;13.812;2023-07-08T02:47:40;99883.72;;;17.43;60.98
39267;BME280;24967;51.154;13.812;2023-07-08T02:50:08;99888.72;;;17.46;60.59
39267;BME280;24967;51.154;13.812;2023-07-08T02:52:34;99884.81;;;17.48;60.62
39267;BME280;24967;51.154;13.812;2023-07-08T02:55:01;99889.81;;;17.51;60.47
39267;BME280;24967;51.154;13.812;2023-07-08T02:57:27;99889.28;;;17.56;60.10
39267;BME280;24967;51.154;13.812;2023-07-08T02:59:54;99895.31;;;17.58;60.21
39267;BME280;24967;51.154;13.812;2023-07-08T03:02:21;99887.25;;;17.58;59.97
39267;BME280;24967;51.154;13.812;2023-07-08T03:04:49;99884.34;;;17.59;59.84
39267;BME280;24967;51.154;13.812;2023-07-08T03:07:16;99891.97;;;17.56;59.82
39267;BME280;24967;51.154;13.812;2023-07-08T03:09:42;99886.75;;;17.54;60.06
39267;BME280;24967;51.154;13.812;2023-07-08T03:12:11;99885.09;;;17.53;60.06
39267;BME280;24967;51.154;13.812;2023-07-08T03:14:37;99876.97;;;17.47;60.65
39267;BME280;24967;51.154;13.812;2023-07-08T03:17:04;99877.81;;;17.32;61.35
39267;BME280;24967;51.154;13.812;2023-07-08T03:19:31;99873.91;;;17.35;61.44
39267;BME280;24967;51.154;13.812;2023-07-08T03:21:59;99879.94;;;17.37;61.40
39267;BME280;24967;51.154;13.812;2023-07-08T03:24:28;99880.28;;;17.49;60.85
39267;BME280;24967;51.154;13.812;2023-07-08T03:26:55;99871.56;;;17.61;60.56
39267;BME280;24967;51.154;13.812;2023-07-08T03:29:24;99877.94;;;17.60;60.67
39267;BME280;24967;51.154;13.812;2023-07-08T03:31:51;99881.22;;;17.56;60.56
39267;BME280;24967;51.154;13.812;2023-07-08T03:34:17;99883.28;;;17.75;60.05
39267;BME280;24967;51.154;13.812;2023-07-08T03:36:45;99885.81;;;17.92;59.80
39267;BME280;24967;51.154;13.812;2023-07-08T03:39:16;99893.13;;;17.98;59.59
39267;BME280;24967;51.154;13.812;2023-07-08T03:41:43;99898.19;;;18.07;59.36
39267;BME280;24967;51.154;13.812;2023-07-08T03:44:09;99892.03;;;18.14;59.44
39267;BME280;24967;51.154;13.812;2023-07-08T03:46:35;99893.31;;;18.18;59.29
39267;BME280;24967;51.154;13.812;2023-07-08T03:49:02;99891.28;;;18.20;59.13
39267;BME280;24967;51.154;13.812;2023-07-08T03:51:30;99890.38;;;18.13;59.24
39267;BME280;24967;51.154;13.812;2023-07-08T03:53:58;99889.84;;;18.24;59.32
39267;BME280;24967;51.154;13.812;2023-07-08T03:56:26;99888.84;;;18.25;59.10
39267;BME280;24967;51.154;13.812;2023-07-08T03:58:52;99890.94;;;18.51;58.68
39267;BME280;24967;51.154;13.812;2023-07-08T04:01:21;99885.78;;;18.49;58.78
39267;BME280;24967;51.154;13.812;2023-07-08T04:03:49;99882.88;;;18.51;58.95
39267;BME280;24967;51.154;13.812;2023-07-08T04:06:16;99886.47;;;18.58;58.43
39267;BME280;24967;51.154;13.812;2023-07-08T04:08:42;99878.41;;;18.58;58.79
39267;BME280;24967;51.154;13.812;2023-07-08T04:11:09;99884.91;;;18.70;58.23
39267;BME280;24967;51.154;13.812;2023-07-08T04:13:39;99883.50;;;18.74;58.28
39267;BME280;24967;51.154;13.812;2023-07-08T04:16:06;99887.47;;;18.79;58.13
39267;BME280;24967;51.154;13.812;2023-07-08T04:18:33;99888.38;;;18.86;58.58
39267;BME280;24967;51.154;13.812;2023-07-08T04:21:01;99879.47;;;18.85;58.63
39267;BME280;24967;51.154;13.812;2023-07-08T04:23:28;99888.28;;;19.01;58.30
39267;BME280;24967;51.154;13.812;2023-07-08T04:25:55;99882.94;;;19.07;58.09
39267;BME280;24967;51.154;13.812;2023-07-08T04:28:23;99891.47;;;19.17;58.11
39267;BME280;24967;51.154;13.812;2023-07-08T04:30:50;99882.84;;;19.29;57.74
39267;BME280;24967;51.154;13.812;2023-07-08T04:33:17;99881.25;;;19.41;57.87
39267;BME280;24967;51.154;13.812;2023-07-08T04:35:44;99880.69;;;19.52;57.96
39267;BME280;24967;51.154;13.812;2023-07-08T04:38:16;99872.69;;;19.65;57.66
39267;BME280;24967;51.154;13.812;2023-07-08T04:40:43;99870.41;;;19.76;56.73
39267;BME280;24967;51.154;13.812;2023-07-08T04:43:09;99873.75;;;19.78;56.69
39267;BME280;24967;51.154;13.812;2023-07-08T04:45:37;99876.72;;;20.03;56.13
39267;BME280;24967;51.154;13.812;2023-07-08T04:48:07;99885.47;;;20.05;56.36
39267;BME280;24967;51.154;13.812;2023-07-08T04:50:39;99874.69;;;20.18;55.55
39267;BME280;24967;51.154;13.812;2023-07-08T04:53:05;99878.88;;;20.27;55.61
39267;BME280;24967;51.154;13.812;2023-07-08T04:55:31;99880.94;;;20.39;55.46
39267;BME280;24967;51.154;13.812;2023-07-08T04:57:58;99880.34;;;20.43;54.84
39267;BME280;24967;51.154;13.812;2023-07-08T05:00:24;99877.06;;;20.61;54.61
39267;BME280;24967;51.154;13.812;2023-07-08T05:02:51;99881.00;;;20.78;53.96
39267;BME280;24967;51.154;13.812;2023-07-08T05:05:20;99888.06;;;20.86;52.62
39267;BME280;24967;51.154;13.812;2023-07-08T05:07:47;99884.09;;;21.02;53.00
39267;BME280;24967;51.154;13.812;2023-07-08T05:10:14;99891.13;;;21.16;53.44
39267;BME280;24967;51.154;13.812;2023-07-08T05:12:41;99887.78;;;21.27;52.66
39267;BME280;24967;51.154;13.812;2023-07-08T05:15:08;99889.84;;;21.39;52.05
39267;BME280;24967;51.154;13.812;2023-07-08T05:17:37;99887.53;;;21.56;52.11
39267;BME280;24967;51.154;13.812;2023-07-08T05:20:05;99889.78;;;21.65;51.47
39267;BME280;24967;51.154;13.812;2023-07-08T05:22:34;99886.56;;;21.88;51.69
39267;BME280;24967;51.154;13.812;2023-07-08T05:25:01;99884.69;;;22.27;51.20
39267;BME280;24967;51.154;13.812;2023-07-08T05:27:28;99893.09;;;22.76;50.01
39267;BME280;24967;51.154;13.812;2023-07-08T05:29:54;99888.69;;;23.43;49.78
39267;BME280;24967;51.154;13.812;2023-07-08T05:32:20;99891.09;;;24.18;47.49
39267;BME280;24967;51.154;13.812;2023-07-08T05:34:47;99884.75;;;24.78;44.26
39267;BME280;24967;51.154;13.812;2023-07-08T05:37:15;99887.31;;;25.55;42.87
39267;BME280;24967;51.154;13.812;2023-07-08T05:39:45;99896.84;;;26.39;41.37
39267;BME280;24967;51.154;13.812;2023-07-08T05:42:11;99887.69;;;26.95;39.60
39267;BME280;24967;51.154;13.812;2023-07-08T05:44:38;99905.50;;;27.59;38.77
39267;BME280;24967;51.154;13.812;2023-07-08T05:47:04;99888.72;;;28.16;38.22
39267;BME280;24967;51.154;13.812;2023-07-08T05:49:31;99895.84;;;28.76;36.78
39267;BME280;24967;51.154;13.812;2023-07-08T05:51:57;99887.09;;;29.12;36.09
39267;BME280;24967;51.154;13.812;2023-07-08T05:54:24;99890.72;;;29.75;34.94
39267;BME280;24967;51.154;13.812;2023-07-08T05:56:51;99897.09;;;30.17;34.49
39267;BME280;24967;51.154;13.812;2023-07-08T05:59:18;99904.59;;;30.47;34.80
39267;BME280;24967;51.154;13.812;2023-07-08T06:01:44;99896.63;;;30.71;32.67
39267;BME280;24967;51.154;13.812;2023-07-08T06:04:11;99904.63;;;30.88;33.19
39267;BME280;24967;51.154;13.812;2023-07-08T06:06:37;99899.34;;;31.27;32.50
39267;BME280;24967;51.154;13.812;2023-07-08T06:09:03;99902.00;;;31.53;32.31
39267;BME280;24967;51.154;13.812;2023-07-08T06:11:30;99901.66;;;31.75;32.42
39267;BME280;24967;51.154;13.812;2023-07-08T06:13:57;99904.06;;;31.91;31.86
39267;BME280;24967;51.154;13.812;2023-07-08T06:16:24;99900.38;;;32.16;31.72
39267;BME280;24967;51.154;13.812;2023-07-08T06:18:50;99888.97;;;32.33;31.12
39267;BME280;24967;51.154;13.812;2023-07-08T06:21:17;99897.91;;;32.10;31.06
39267;BME280;24967;51.154;13.812;2023-07-08T06:23:43;99895.06;;;32.25;30.73
39267;BME280;24967;51.154;13.812;2023-07-08T06:26:09;99899.81;;;32.20;31.13
39267;BME280;24967;51.154;13.812;2023-07-08T06:28:36;99895.63;;;32.22;30.21
39267;BME280;24967;51.154;13.812;2023-07-08T06:31:03;99896.19;;;32.24;30.17
39267;BME280;24967;51.154;13.812;2023-07-08T06:33:30;99908.31;;;32.18;30.18
39267;BME280;24967;51.154;13.812;2023-07-08T06:35:56;99900.50;;;32.35;30.18
39267;BME280;24967;51.154;13.812;2023-07-08T06:38:23;99898.38;;;32.22;31.45
39267;BME280;24967;51.154;13.812;2023-07-08T06:40:49;99897.91;;;32.54;30.97
39267;BME280;24967;51.154;13.812;2023-07-08T06:43:15;99889.19;;;32.47;31.72
39267;BME280;24967;51.154;13.812;2023-07-08T06:45:43;99890.25;;;32.46;30.64
39267;BME280;24967;51.154;13.812;2023-07-08T06:48:11;99887.44;;;32.56;30.12
39267;BME280;24967;51.154;13.812;2023-07-08T06:50:37;99892.94;;;32.56;30.14
39267;BME280;24967;51.154;13.812;2023-07-08T06:53:04;99887.59;;;32.70;30.81
39267;BME280;24967;51.154;13.812;2023-07-08T06:55:30;99893.91;;;33.05;30.15
39267;BME280;24967;51.154;13.812;2023-07-08T06:57:57;99893.22;;;32.15;30.48
39267;BME280;24967;51.154;13.812;2023-07-08T07:00:23;99891.00;;;32.17;32.18
39267;BME280;24967;51.154;13.812;2023-07-08T07:02:49;99887.38;;;32.61;30.98
39267;BME280;24967;51.154;13.812;2023-07-08T07:05:17;99893.66;;;32.67;30.88
39267;BME280;24967;51.154;13.812;2023-07-08T07:07:44;99885.38;;;32.38;29.21
39267;BME280;24967;51.154;13.812;2023-07-08T07:10:10;99888.06;;;32.43;31.15
39267;BME280;24967;51.154;13.812;2023-07-08T07:12:36;99882.66;;;32.33;31.89
39267;BME280;24967;51.154;13.812;2023-07-08T07:15:04;99877.97;;;32.68;31.01
39267;BME280;24967;51.154;13.812;2023-07-08T07:17:31;99879.78;;;32.82;30.50
39267;BME280;24967;51.154;13.812;2023-07-08T07:19:57;99879.69;;;32.93;31.62
39267;BME280;24967;51.154;13.812;2023-07-08T07:22:25;99880.19;;;33.00;30.39
39267;BME280;24967;51.154;13.812;2023-07-08T07:24:52;99874.50;;;32.86;30.50
39267;BME280;24967;51.154;13.812;2023-07-08T07:27:18;99883.44;;;32.73;31.47
39267;BME280;24967;51.154;13.812;2023-07-08T07:29:46;99877.38;;;32.36;32.11
39267;BME280;24967;51.154;13.812;2023-07-08T07:32:14;99875.06;;;32.59;30.90
39267;BME280;24967;51.154;13.812;2023-07-08T07:34:41;99877.00;;;32.82;31.19
39267;BME280;24967;51.154;13.812;2023-07-08T07:37:10;99874.25;;;32.82;30.72
39267;BME280;24967;51.154;13.812;2023-07-08T07:39:39;99880.53;;;32.88;30.16
39267;BME280;24967;51.154;13.812;2023-07-08T07:42:06;99879.25;;;33.10;31.87
39267;BME280;24967;51.154;13.812;2023-07-08T07:44:32;99875.38;;;32.81;30.53
39267;BME280;24967;51.154;13.812;2023-07-08T07:46:59;99871.28;;;32.79;31.81
39267;BME280;24967;51.154;13.812;2023-07-08T07:49:25;99873.75;;;32.80;32.17
39267;BME280;24967;51.154;13.812;2023-07-08T07:51:52;99872.00;;;32.90;30.97
39267;BME280;24967;51.154;13.812;2023-07-08T07:54:18;99872.38;;;33.07;32.31
39267;BME280;24967;51.154;13.812;2023-07-08T07:56:46;99868.41;;;32.89;32.44
39267;BME280;24967;51.154;13.812;2023-07-08T07:59:12;99874.50;;;33.15;32.35
39267;BME280;24967;51.154;13.812;2023-07-08T08:01:39;99875.50;;;33.00;31.90
39267;BME280;24967;51.154;13.812;2023-07-08T08:04:07;99869.53;;;33.17;31.78
39267;BME280;24967;51.154;13.812;2023-07-08T08:06:33;99869.72;;;33.50;31.86
39267;BME280;24967;51.154;13.812;2023-07-08T08:09:00;99870.22;;;33.76;30.55
39267;BME280;24967;51.154;13.812;2023-07-08T08:11:26;99874.47;;;33.68;33.02
39267;BME280;24967;51.154;13.812;2023-07-08T08:13:54;99869.63;;;33.79;31.84
39267;BME280;24967;51.154;13.812;2023-07-08T08:16:20;99870.31;;;33.90;31.55
39267;BME280;24967;51.154;13.812;2023-07-08T08:18:47;99865.06;;;33.88;30.00
39267;BME280;24967;51.154;13.812;2023-07-08T08:21:13;99866.34;;;33.96;30.47
39267;BME280;24967;51.154;13.812;2023-07-08T08:23:40;99866.88;;;33.98;29.39
39267;BME280;24967;51.154;13.812;2023-07-08T08:26:06;99862.09;;;33.85;32.55
39267;BME280;24967;51.154;13.812;2023-07-08T08:28:33;99864.47;;;33.91;32.77
39267;BME280;24967;51.154;13.812;2023-07-08T08:31:01;99863.09;;;34.13;30.86
39267;BME280;24967;51.154;13.812;2023-07-08T08:33:27;99868.00;;;34.35;32.10
39267;BME280;24967;51.154;13.812;2023-07-08T08:35:53;99863.22;;;34.22;28.86
39267;BME280;24967;51.154;13.812;2023-07-08T08:38:20;99857.13;;;34.06;30.14
39267;BME280;24967;51.154;13.812;2023-07-08T08:40:46;99861.44;;;34.31;30.83
39267;BME280;24967;51.154;13.812;2023-07-08T08:43:16;99865.03;;;34.12;29.68
39267;BME280;24967;51.154;13.812;2023-07-08T08:45:48;99868.97;;;34.44;28.76
39267;BME280;24967;51.154;13.812;2023-07-08T08:48:21;99867.94;;;33.83;30.08
39267;BME280;24967;51.154;13.812;2023-07-08T08:50:51;99868.63;;;33.70;30.32
39267;BME280;24967;51.154;13.812;2023-07-08T08:53:20;99861.56;;;33.64;30.16
39267;BME280;24967;51.154;13.812;2023-07-08T08:55:51;99867.06;;;33.64;29.27
39267;BME280;24967;51.154;13.812;2023-07-08T08:58:28;99874.69;;;33.72;30.35
39267;BME280;24967;51.154;13.812;2023-07-08T09:00:59;99875.06;;;33.65;30.59
39267;BME280;24967;51.154;13.812;2023-07-08T09:03:32;99868.25;;;33.58;30.47
39267;BME280;24967;51.154;13.812;2023-07-08T09:06:01;99871.78;;;33.82;34.68
39267;BME280;24967;51.154;13.812;2023-07-08T09:08:35;99873.72;;;34.01;29.13
39267;BME280;24967;51.154;13.812;2023-07-08T09:11:19;99850.47;;;34.45;27.35
39267;BME280;24967;51.154;13.812;2023-07-08T09:13:51;99860.16;;;34.42;29.76
39267;BME280;24967;51.154;13.812;2023-07-08T09:16:24;99856.28;;;34.62;27.92
39267;BME280;24967;51.154;13.812;2023-07-08T09:18:58;99856.50;;;34.47;25.88
39267;BME280;24967;51.154;13.812;2023-07-08T09:21:30;99858.78;;;34.26;30.97
39267;BME280;24967;51.154;13.812;2023-07-08T09:24:03;99868.41;;;34.61;26.46
39267;BME280;24967;51.154;13.812;2023-07-08T09:26:34;99864.00;;;34.93;28.42
39267;BME280;24967;51.154;13.812;2023-07-08T09:29:04;99862.81;;;35.13;25.20
39267;BME280;24967;51.154;13.812;2023-07-08T09:31:38;99857.69;;;35.33;24.17
39267;BME280;24967;51.154;13.812;2023-07-08T09:34:10;99872.94;;;35.31;24.62
39267;BME280;24967;51.154;13.812;2023-07-08T09:36:40;99861.69;;;35.14;23.07
39267;BME280;24967;51.154;13.812;2023-07-08T09:39:10;99867.94;;;35.19;22.61
39267;BME280;24967;51.154;13.812;2023-07-08T09:41:37;99862.72;;;34.71;22.31
39267;BME280;24967;51.154;13.812;2023-07-08T09:44:13;99872.84;;;34.24;22.09
39267;BME280;24967;51.154;13.812;2023-07-08T09:46:40;99869.88;;;34.20;23.03
39267;BME280;24967;51.154;13.812;2023-07-08T09:49:16;99861.81;;;34.24;20.75
39267;BME280;24967;51.154;13.812;2023-07-08T09:51:43;99870.16;;;34.57;24.59
39267;BME280;24967;51.154;13.812;2023-07-08T09:54:10;99855.28;;;34.85;22.58
39267;BME280;24967;51.154;13.812;2023-07-08T09:56:40;99861.13;;;34.98;22.83
39267;BME280;24967;51.154;13.812;2023-07-08T09:59:11;99858.25;;;35.03;22.40
39267;BME280;24967;51.154;13.812;2023-07-08T10:01:40;99854.91;;;34.92;22.75
39267;BME280;24967;51.154;13.812;2023-07-08T10:04:07;99856.59;;;34.88;23.51
39267;BME280;24967;51.154;13.812;2023-07-08T10:06:35;99855.28;;;34.53;23.82
39267;BME280;24967;51.154;13.812;2023-07-08T10:09:04;99860.63;;;33.92;23.46
39267;BME280;24967;51.154;13.812;2023-07-08T10:11:32;99855.78;;;33.84;25.06
39267;BME280;24967;51.154;13.812;2023-07-08T10:14:01;99864.47;;;33.91;24.33
39267;BME280;24967;51.154;13.812;2023-07-08T10:16:32;99864.41;;;33.96;25.44
39267;BME280;24967;51.154;13.812;2023-07-08T10:19:00;99859.72;;;33.78;25.52
39267;BME280;24967;51.154;13.812;2023-07-08T10:21:34;99863.81;;;33.81;26.14
39267;BME280;24967;51.154;13.812;2023-07-08T10:24:20;99856.25;;;33.67;24.90
39267;BME280;24967;51.154;13.812;2023-07-08T10:26:56;99861.06;;;33.81;25.45
39267;BME280;24967;51.154;13.812;2023-07-08T10:29:29;99855.56;;;33.81;26.35
39267;BME280;24967;51.154;13.812;2023-07-08T10:32:04;99857.56;;;33.94;24.56
39267;BME280;24967;51.154;13.812;2023-07-08T10:34:40;99855.13;;;34.11;23.94
39267;BME280;24967;51.154;13.812;2023-07-08T10:37:14;99855.13;;;34.11;23.80
39267;BME280;24967;51.154;13.812;2023-07-08T10:42:47;99850.06;;;34.51;24.67
39267;BME280;24967;51.154;13.812;2023-07-08T10:45:23;99853.19;;;34.63;24.04
39267;BME280;24967;51.154;13.812;2023-07-08T10:48:11;99844.22;;;34.72;23.20
39267;BME280;24967;51.154;13.812;2023-07-08T10:50:53;99846.94;;;34.58;22.50
39267;BME280;24967;51.154;13.812;2023-07-08T10:53:40;99845.66;;;34.69;22.44
39267;BME280;24967;51.154;13.812;2023-07-08T10:56:15;99839.91;;;34.79;22.91
39267;BME280;24967;51.154;13.812;2023-07-08T10:59:10;99844.88;;;34.96;27.18
39267;BME280;24967;51.154;13.812;2023-07-08T11:01:45;99837.13;;;35.12;25.80
39267;BME280;24967;51.154;13.812;2023-07-08T11:04:31;99836.41;;;35.62;22.94
39267;BME280;24967;51.154;13.812;2023-07-08T11:07:10;99834.16;;;35.50;22.33
39267;BME280;24967;51.154;13.812;2023-07-08T11:09:42;99831.25;;;35.69;23.15
39267;BME280;24967;51.154;13.812;2023-07-08T11:12:21;99830.22;;;35.78;22.43
39267;BME280;24967;51.154;13.812;2023-07-08T11:14:51;99832.59;;;35.71;23.15
39267;BME280;24967;51.154;13.812;2023-07-08T11:17:24;99832.22;;;35.23;22.15
39267;BME280;24967;51.154;13.812;2023-07-08T11:19:56;99830.25;;;34.96;22.62
39267;BME280;24967;51.154;13.812;2023-07-08T11:22:24;99824.84;;;35.18;21.84
39267;BME280;24967;51.154;13.812;2023-07-08T11:24:54;99825.56;;;35.24;23.05
39267;BME280;24967;51.154;13.812;2023-07-08T11:27:26;99826.28;;;35.29;23.02
39267;BME280;24967;51.154;13.812;2023-07-08T11:29:55;99827.50;;;35.23;22.79
39267;BME280;24967;51.154;13.812;2023-07-08T11:32:23;99828.63;;;35.08;22.09
39267;BME280;24967;51.154;13.812;2023-07-08T11:34:53;99824.66;;;35.15;22.26
39267;BME280;24967;51.154;13.812;2023-07-08T11:37:21;99821.16;;;35.09;22.77
39267;BME280;24967;51.154;13.812;2023-07-08T11:39:54;99826.16;;;34.93;23.11
39267;BME280;24967;51.154;13.812;2023-07-08T11:42:25;99817.72;;;34.71;22.96
39267;BME280;24967;51.154;13.812;2023-07-08T11:44:56;99816.00;;;34.75;23.43
39267;BME280;24967;51.154;13.812;2023-07-08T11:47:26;99819.06;;;34.40;23.67
39267;BME280;24967;51.154;13.812;2023-07-08T11:49:53;99818.84;;;34.37;24.49
39267;BME280;24967;51.154;13.812;2023-07-08T11:52:22;99805.09;;;34.51;23.55
39267;BME280;24967;51.154;13.812;2023-07-08T11:54:56;99816.91;;;34.37;24.01
39267;BME280;24967;51.154;13.812;2023-07-08T11:57:30;99812.34;;;34.14;23.64
39267;BME280;24967;51.154;13.812;2023-07-08T12:00:13;99816.41;;;34.49;24.92
39267;BME280;24967;51.154;13.812;2023-07-08T12:02:49;99812.00;;;34.95;24.16
39267;BME280;24967;51.154;13.812;2023-07-08T12:05:16;99809.94;;;35.19;24.20
39267;BME280;24967;51.154;13.812;2023-07-08T12:07:45;99804.78;;;35.54;23.49
39267;BME280;24967;51.154;13.812;2023-07-08T12:10:16;99804.34;;;35.61;21.80
39267;BME280;24967;51.154;13.812;2023-07-08T12:12:46;99809.66;;;35.43;21.13
39267;BME280;24967;51.154;13.812;2023-07-08T12:15:17;99804.13;;;35.43;23.25
39267;BME280;24967;51.154;13.812;2023-07-08T12:17:44;99802.94;;;35.22;22.75
39267;BME280;24967;51.154;13.812;2023-07-08T12:20:19;99806.91;;;34.88;23.23
39267;BME280;24967;51.154;13.812;2023-07-08T12:22:47;99803.41;;;34.82;23.01
39267;BME280;24967;51.154;13.812;2023-07-08T12:25:19;99801.81;;;34.49;22.71
39267;BME280;24967;51.154;13.812;2023-07-08T12:27:47;99803.59;;;34.26;22.99
39267;BME280;24967;51.154;13.812;2023-07-08T12:30:15;99805.56;;;34.39;23.13
39267;BME280;24967;51.154;13.812;2023-07-08T12:32:43;99806.56;;;34.29;23.72
39267;BME280;24967;51.154;13.812;2023-07-08T12:35:19;99803.06;;;34.24;23.56
39267;BME280;24967;51.154;13.812;2023-07-08T12:37:47;99796.81;;;34.51;24.07
39267;BME280;24967;51.154;13.812;2023-07-08T12:40:14;99803.81;;;34.76;23.17
39267;BME280;24967;51.154;13.812;2023-07-08T12:42:41;99799.72;;;34.73;22.52
39267;BME280;24967;51.154;13.812;2023-07-08T12:45:17;99794.06;;;35.11;23.75
39267;BME280;24967;51.154;13.812;2023-07-08T12:47:45;99801.94;;;35.18;22.27
39267;BME280;24967;51.154;13.812;2023-07-08T12:50:12;99790.34;;;35.29;22.40
39267;BME280;24967;51.154;13.812;2023-07-08T12:52:39;99793.22;;;35.38;22.27
39267;BME280;24967;51.154;13.812;2023-07-08T12:55:08;99786.03;;;35.51;22.11
39267;BME280;24967;51.154;13.812;2023-07-08T12:57:35;99783.19;;;35.56;21.91
39267;BME280;24967;51.154;13.812;2023-07-08T13:00:01;99786.03;;;35.51;21.26
39267;BME280;24967;51.154;13.812;2023-07-08T13:02:31;99782.13;;;35.52;21.81
39267;BME280;24967;51.154;13.812;2023-07-08T13:05:00;99779.34;;;35.52;21.64
39267;BME280;24967;51.154;13.812;2023-07-08T13:07:34;99778.22;;;35.67;20.99
39267;BME280;24967;51.154;13.812;2023-07-08T13:10:03;99777.13;;;35.90;21.42
39267;BME280;24967;51.154;13.812;2023-07-08T13:12:31;99784.16;;;35.74;22.29
39267;BME280;24967;51.154;13.812;2023-07-08T13:14:59;99776.22;;;35.81;22.21
39267;BME280;24967;51.154;13.812;2023-07-08T13:17:27;99782.03;;;35.93;23.02
39267;BME280;24967;51.154;13.812;2023-07-08T13:19:55;99770.72;;;36.04;22.91
39267;BME280;24967;51.154;13.812;2023-07-08T13:22:23;99769.53;;;35.96;22.37
39267;BME280;24967;51.154;13.812;2023-07-08T13:24:59;99766.50;;;35.84;21.68
39267;BME280;24967;51.154;13.812;2023-07-08T13:27:26;99770.91;;;35.35;22.19
39267;BME280;24967;51.154;13.812;2023-07-08T13:29:53;99770.06;;;35.62;22.17
39267;BME280;24967;51.154;13.812;2023-07-08T13:32:20;99765.78;;;35.55;22.20
39267;BME280;24967;51.154;13.812;2023-07-08T13:34:56;99762.22;;;35.77;22.79
39267;BME280;24967;51.154;13.812;2023-07-08T13:37:22;99760.50;;;35.04;21.97
39267;BME280;24967;51.154;13.812;2023-07-08T13:39:52;99758.06;;;35.66;22.56
39267;BME280;24967;51.154;13.812;2023-07-08T13:42:19;99751.66;;;35.79;21.78
39267;BME280;24967;51.154;13.812;2023-07-08T13:44:47;99759.16;;;36.01;21.64
39267;BME280;24967;51.154;13.812;2023-07-08T13:47:21;99751.81;;;36.19;22.35
39267;BME280;24967;51.154;13.812;2023-07-08T13:49:49;99756.72;;;36.22;22.04
39267;BME280;24967;51.154;13.812;2023-07-08T13:52:20;99756.84;;;36.17;20.94
39267;BME280;24967;51.154;13.812;2023-07-08T13:54:48;99749.16;;;36.45;23.77
39267;BME280;24967;51.154;13.812;2023-07-08T13:57:18;99751.88;;;36.28;21.21
39267;BME280;24967;51.154;13.812;2023-07-08T13:59:45;99752.16;;;36.27;21.33
39267;BME280;24967;51.154;13.812;2023-07-08T14:02:16;99746.34;;;36.37;21.43
39267;BME280;24967;51.154;13.812;2023-07-08T14:04:43;99753.00;;;36.58;22.80
39267;BME280;24967;51.154;13.812;2023-07-08T14:07:15;99746.00;;;36.30;23.66
39267;BME280;24967;51.154;13.812;2023-07-08T14:09:43;99752.13;;;36.18;21.99
39267;BME280;24967;51.154;13.812;2023-07-08T14:12:09;99749.53;;;36.21;22.47
39267;BME280;24967;51.154;13.812;2023-07-08T14:14:36;99749.97;;;36.15;23.27